createdAt,value
2018-12-18T06:37:28.767Z,82.14
2018-12-18T06:39:58.429Z,79.98
2018-12-18T06:42:27.722Z,77.71
2018-12-18T06:44:56.698Z,76.40
2018-12-18T06:47:25.776Z,77.05
2018-12-18T06:49:55.851Z,77.31
2018-12-18T06:52:25.223Z,76.51
2018-12-18T06:54:54.830Z,77.38
2018-12-18T06:57:25.670Z,75.87
2018-12-18T06:59:55.109Z,75.25
2018-12-18T07:02:23.994Z,73.28
2018-12-18T07:04:53.218Z,71.96
2018-12-18T07:07:25.095Z,71.98
2018-12-18T07:09:55.290Z,74.50
2018-12-18T07:15:06.623Z,76.21
2018-12-18T07:17:36.838Z,76.02
2018-12-18T07:20:06.150Z,76.21
2018-12-18T07:22:35.191Z,76.84
2018-12-18T07:25:04.777Z,75.82
2018-12-18T07:27:34.155Z,76.03
2018-12-18T07:30:03.336Z,76.03
2018-12-18T07:32:34.148Z,75.92
2018-12-18T07:35:02.756Z,76.15
2018-12-18T07:37:34.487Z,78.05
2018-12-18T07:40:04.955Z,78.45
2018-12-18T07:42:35.201Z,79.53
2018-12-18T07:45:05.954Z,78.95
2018-12-18T07:47:35.047Z,80.23
2018-12-18T07:50:04.162Z,79.49
2018-12-18T07:52:34.113Z,76.63
2018-12-18T07:55:04.055Z,71.77
2018-12-18T07:57:33.124Z,73.05
2018-12-18T08:00:02.898Z,73.44
2018-12-18T08:02:31.454Z,75.18
2018-12-18T08:05:01.905Z,75.98
2018-12-18T08:07:31.050Z,72.05
2018-12-18T08:10:02.477Z,72.51
2018-12-18T08:12:31.919Z,70.32
2018-12-18T08:15:02.334Z,70.05
2018-12-18T08:17:31.691Z,70.87
2018-12-18T08:20:02.027Z,72.21
2018-12-18T08:22:31.177Z,71.26
2018-12-18T08:25:01.616Z,70.65
2018-12-18T08:27:32.046Z,70.58
2018-12-18T08:30:02.379Z,70.90
2018-12-18T08:32:32.439Z,68.58
2018-12-18T08:35:02.638Z,69.25
2018-12-18T08:37:32.355Z,68.67
2018-12-18T08:40:02.598Z,66.43
2018-12-18T08:42:32.440Z,67.21
2018-12-18T08:45:32.618Z,67.86
2018-12-18T08:48:02.922Z,69.59
2018-12-18T08:50:32.944Z,69.23
2018-12-18T08:53:03.788Z,72.52
2018-12-18T08:55:32.842Z,73.21
2018-12-18T08:58:01.873Z,71.97
2018-12-18T09:00:31.140Z,71.22
2018-12-18T09:03:00.209Z,71.28
2018-12-18T09:05:30.418Z,70.04
2018-12-18T09:07:59.509Z,67.29
2018-12-18T09:10:28.498Z,67.56
2018-12-18T09:12:58.042Z,68.26
2018-12-18T09:15:32.614Z,67.03
2018-12-18T09:18:02.615Z,69.89
2018-12-18T09:20:32.764Z,69.57
2018-12-18T09:23:03.632Z,69.61
2018-12-18T09:25:36.621Z,70.98
2018-12-18T09:28:07.670Z,71.83
2018-12-18T09:30:42.467Z,70.38
2018-12-18T09:33:10.311Z,71.64
2018-12-18T09:35:41.020Z,69.32
2018-12-18T09:38:15.915Z,69.11
2018-12-18T09:40:49.742Z,70.84
2018-12-18T09:43:24.133Z,70.87
2018-12-18T09:45:54.178Z,69.25
2018-12-18T09:48:24.255Z,69.06
2018-12-18T09:50:53.438Z,71.20
2018-12-18T09:53:23.232Z,68.54
2018-12-18T09:55:52.569Z,68.17
2018-12-18T09:58:22.622Z,69.50
2018-12-18T10:00:51.833Z,69.65
2018-12-18T10:03:21.601Z,70.06
2018-12-18T10:05:56.326Z,69.96
2018-12-18T10:08:23.241Z,70.54
2018-12-18T10:10:52.352Z,71.90
2018-12-18T10:13:22.963Z,72.65
2018-12-18T10:15:52.598Z,72.97
2018-12-18T10:18:39.100Z,71.50
2018-12-18T10:21:08.288Z,72.26
2018-12-18T10:23:39.250Z,69.41
2018-12-18T10:26:09.675Z,69.40
2018-12-18T10:28:38.959Z,68.87
2018-12-18T10:31:07.808Z,66.56
2018-12-18T10:33:37.853Z,66.65
2018-12-18T10:36:06.399Z,68.19
2018-12-18T10:38:36.620Z,64.61
2018-12-18T10:41:06.134Z,66.96
2018-12-18T10:43:34.740Z,67.91
2018-12-18T10:46:07.237Z,64.16
2018-12-18T10:48:37.241Z,62.96
2018-12-18T10:51:05.745Z,63.77
2018-12-18T10:53:36.326Z,63.77
2018-12-18T10:56:05.198Z,64.02
2018-12-18T10:58:43.935Z,64.87
2018-12-18T11:01:16.314Z,63.61
2018-12-18T11:03:45.286Z,64.24
2018-12-18T11:06:15.434Z,64.59
2018-12-18T11:08:45.859Z,62.30
2018-12-18T11:11:15.063Z,61.81
2018-12-18T11:13:44.563Z,62.79
2018-12-18T11:16:16.329Z,61.81
2018-12-18T11:18:47.136Z,62.87
2018-12-18T11:21:18.810Z,62.57
2018-12-18T11:23:48.400Z,63.40
2018-12-18T11:26:16.942Z,64.28
2018-12-18T11:28:49.716Z,64.56
2018-12-18T11:31:21.990Z,64.34
2018-12-18T11:33:52.728Z,64.21
2018-12-18T11:36:22.601Z,64.37
2018-12-18T11:38:53.591Z,64.61
2018-12-18T11:41:23.357Z,61.86
2018-12-18T11:43:52.839Z,62.16
2018-12-18T11:46:23.153Z,61.18
2018-12-18T11:48:52.693Z,60.48
2018-12-18T11:51:21.305Z,60.45
2018-12-18T11:53:50.537Z,59.77
2018-12-18T11:56:19.407Z,58.86
2018-12-18T11:58:48.930Z,58.23
2018-12-18T12:01:18.874Z,60.59
2018-12-18T12:03:47.858Z,59.75
2018-12-18T12:06:22.982Z,59.11
2018-12-18T12:08:50.373Z,56.60
2018-12-18T12:11:20.336Z,56.83
2018-12-18T12:13:50.659Z,55.38
2018-12-18T12:16:19.685Z,53.93
2018-12-18T12:18:48.789Z,55.38
2018-12-18T12:21:18.598Z,56.11
2018-12-18T12:23:47.553Z,52.74
2018-12-18T12:26:21.936Z,53.81
2018-12-18T12:28:50.471Z,52.02
2018-12-18T12:31:21.139Z,51.44
2018-12-18T12:33:50.360Z,54.79
2018-12-18T12:36:20.931Z,54.16
2018-12-18T12:38:50.036Z,51.95
2018-12-18T12:41:19.783Z,52.69
2018-12-18T12:43:49.952Z,54.25
2018-12-18T12:46:19.777Z,54.65
2018-12-18T12:48:54.686Z,54.97
2018-12-18T12:51:23.444Z,54.36
2018-12-18T12:53:53.198Z,54.38
2018-12-18T12:56:28.994Z,55.13
2018-12-18T12:59:02.570Z,53.64
2018-12-18T13:01:31.283Z,54.19
2018-12-18T13:03:59.807Z,54.38
2018-12-18T13:06:28.735Z,54.02
2018-12-18T13:08:58.349Z,53.50
2018-12-18T13:11:30.555Z,53.43
2018-12-18T13:14:01.376Z,53.00
2018-12-18T13:17:00.658Z,52.67
2018-12-18T13:19:29.830Z,53.50
2018-12-18T13:21:59.425Z,52.41
2018-12-18T13:24:29.225Z,52.15
2018-12-18T13:26:58.355Z,51.42
2018-12-18T13:29:28.225Z,51.65
2018-12-18T13:31:58.223Z,52.44
2018-12-18T13:34:28.327Z,52.97
2018-12-18T13:36:56.972Z,53.77
2018-12-18T13:39:27.090Z,53.93
2018-12-18T13:41:57.315Z,52.89
2018-12-18T13:44:27.191Z,53.56
2018-12-18T13:46:56.525Z,52.62
2018-12-18T13:49:25.519Z,52.00
2018-12-18T13:51:56.307Z,52.56
2018-12-18T13:54:26.634Z,52.70
2018-12-18T13:56:57.453Z,53.99
2018-12-18T13:59:26.836Z,52.39
2018-12-18T14:01:57.197Z,52.49
2018-12-18T14:04:25.684Z,52.70
2018-12-18T14:06:56.513Z,53.37
2018-12-18T14:09:25.304Z,52.91
2018-12-18T14:12:00.675Z,51.43
2018-12-18T14:14:30.436Z,51.09
2018-12-18T14:16:59.194Z,51.55
2018-12-18T14:19:28.135Z,52.32
2018-12-18T14:21:56.714Z,51.67
2018-12-18T14:24:26.324Z,52.85
2018-12-18T14:26:54.860Z,53.46
2018-12-18T14:29:25.006Z,53.17
2018-12-18T14:31:54.931Z,52.06
2018-12-18T14:34:23.706Z,52.83
2018-12-18T14:36:56.729Z,52.90
2018-12-18T14:39:25.601Z,54.08
2018-12-18T14:41:55.177Z,53.61
2018-12-18T14:44:25.656Z,53.95
2018-12-18T14:46:57.491Z,52.65
2018-12-18T14:49:27.451Z,54.00
2018-12-18T14:51:57.293Z,54.19
2018-12-18T14:54:27.194Z,53.45
2018-12-18T14:56:56.221Z,55.65
2018-12-18T14:59:27.575Z,55.69
2018-12-18T15:01:56.178Z,56.90
2018-12-18T15:04:25.750Z,56.67
2018-12-18T15:07:02.637Z,56.28
2018-12-18T15:09:29.249Z,55.88
2018-12-18T15:11:58.898Z,54.80
2018-12-18T15:14:29.035Z,53.98
2018-12-18T15:17:00.467Z,54.53
2018-12-18T15:19:30.149Z,55.42
2018-12-18T15:21:59.638Z,54.52
2018-12-18T15:24:29.777Z,56.03
2018-12-18T15:27:00.154Z,55.75
2018-12-18T15:29:28.872Z,55.79
2018-12-18T15:31:59.467Z,56.21
2018-12-18T15:34:28.598Z,57.75
2018-12-18T15:36:58.167Z,57.64
2018-12-18T15:39:28.051Z,56.21
2018-12-18T15:41:57.334Z,57.20
2018-12-18T15:44:27.840Z,56.44
2018-12-18T15:46:57.226Z,56.84
2018-12-18T15:49:28.286Z,56.91
2018-12-18T15:52:01.831Z,57.64
2018-12-18T15:54:32.902Z,57.55
2018-12-18T15:57:01.618Z,56.89
2018-12-18T15:59:31.051Z,59.26
2018-12-18T16:02:01.127Z,58.42
2018-12-18T16:04:31.614Z,58.46
2018-12-18T16:07:03.954Z,58.31
2018-12-18T16:09:34.718Z,57.77
2018-12-18T16:12:03.772Z,57.91
2018-12-18T16:14:32.922Z,57.51
2018-12-18T16:17:02.823Z,56.97
2018-12-18T16:19:33.650Z,58.24
2018-12-18T16:22:02.627Z,58.97
2018-12-18T16:24:31.756Z,61.29
2018-12-18T16:27:02.826Z,59.84
2018-12-18T16:29:32.354Z,61.78
2018-12-18T16:32:02.853Z,61.30
2018-12-18T16:34:31.998Z,60.22
2018-12-18T16:37:04.333Z,59.52
2018-12-18T16:39:34.504Z,60.47
2018-12-18T16:42:06.555Z,59.78
2018-12-18T16:44:36.644Z,58.29
2018-12-18T16:47:06.679Z,58.91
2018-12-18T16:49:35.636Z,62.47
2018-12-18T16:52:04.926Z,61.80
2018-12-18T16:54:36.311Z,61.96
2018-12-18T16:57:13.087Z,60.79
2018-12-18T16:59:37.507Z,60.09
2018-12-18T17:02:06.368Z,60.19
2018-12-18T17:04:36.365Z,59.90
2018-12-18T17:07:06.667Z,58.23
2018-12-18T17:09:35.459Z,59.97
2018-12-18T17:12:05.248Z,60.17
2018-12-18T17:14:34.539Z,61.23
2018-12-18T17:17:03.409Z,59.98
2018-12-18T17:19:34.555Z,59.66
2018-12-18T17:22:03.136Z,60.60
2018-12-18T17:24:34.633Z,60.58
2018-12-18T17:27:04.652Z,60.44
2018-12-18T17:29:34.629Z,60.06
2018-12-18T17:32:03.295Z,61.66
2018-12-18T17:34:33.078Z,64.04
2018-12-18T17:37:03.398Z,63.11
2018-12-18T17:39:32.931Z,62.70
2018-12-18T17:42:02.258Z,62.75
2018-12-18T17:44:33.021Z,62.61
2018-12-18T17:47:01.601Z,62.83
2018-12-18T17:49:31.358Z,62.67
2018-12-18T17:52:01.031Z,61.82
2018-12-18T17:54:29.946Z,61.67
2018-12-18T17:56:59.976Z,63.29
2018-12-18T17:59:31.694Z,64.21
2018-12-18T18:02:01.601Z,63.79
2018-12-18T18:04:31.147Z,64.42
2018-12-18T18:07:00.141Z,65.15
2018-12-18T18:09:28.622Z,64.26
2018-12-18T18:11:57.953Z,64.68
2018-12-18T18:14:30.384Z,63.76
2018-12-18T18:17:00.854Z,63.08
2018-12-18T18:19:29.529Z,62.47
2018-12-18T18:21:58.942Z,61.53
2018-12-18T18:24:28.243Z,63.51
2018-12-18T18:26:59.756Z,63.07
2018-12-18T18:29:29.374Z,62.91
2018-12-18T18:31:59.990Z,63.62
2018-12-18T18:34:29.828Z,63.61
2018-12-18T18:37:00.280Z,62.46
2018-12-18T18:39:30.654Z,62.78
2018-12-18T18:41:59.602Z,66.68
2018-12-18T18:44:29.066Z,65.68
2018-12-18T18:46:58.202Z,66.69
2018-12-18T18:49:26.934Z,67.36
2018-12-18T18:51:56.790Z,66.16
2018-12-18T18:54:26.315Z,65.17
2018-12-18T18:56:54.825Z,64.59
2018-12-18T18:59:25.848Z,64.02
2018-12-18T19:01:54.760Z,64.51
2018-12-18T19:04:23.520Z,63.76
2018-12-18T19:06:52.030Z,62.82
2018-12-18T19:09:21.299Z,61.83
2018-12-18T19:11:50.711Z,62.64
2018-12-18T19:14:25.033Z,62.19
2018-12-18T19:16:53.908Z,63.42
2018-12-18T19:19:23.963Z,63.80
2018-12-18T19:21:53.398Z,63.08
2018-12-18T19:24:22.696Z,63.10
2018-12-18T19:26:52.112Z,63.56
2018-12-18T19:29:21.165Z,65.35
2018-12-18T19:31:49.830Z,66.65
2018-12-18T19:34:20.893Z,63.93
2018-12-18T19:36:50.570Z,64.96
2018-12-18T19:39:21.158Z,65.04
2018-12-18T19:41:50.974Z,65.63
2018-12-18T19:44:21.582Z,65.85
2018-12-18T19:46:50.981Z,67.31
2018-12-18T19:49:20.288Z,67.29
2018-12-18T19:51:50.262Z,68.22
2018-12-18T19:54:19.459Z,69.83
2018-12-18T19:56:50.294Z,69.97
2018-12-18T19:59:21.292Z,69.57
2018-12-18T20:01:51.371Z,69.61
2018-12-18T20:04:20.700Z,70.37
2018-12-18T20:06:50.091Z,70.12
2018-12-18T20:09:20.479Z,69.86
2018-12-18T20:11:50.202Z,70.27
2018-12-18T20:14:19.666Z,69.66
2018-12-18T20:16:49.743Z,68.70
2018-12-18T20:19:20.794Z,69.85
2018-12-18T20:21:51.178Z,69.06
2018-12-18T20:24:21.441Z,70.25
2018-12-18T20:26:50.306Z,69.84
2018-12-18T20:29:21.559Z,69.98
2018-12-18T20:31:50.369Z,69.20
2018-12-18T20:34:19.451Z,69.02
2018-12-18T20:36:48.789Z,67.48
2018-12-18T20:39:20.918Z,68.62
2018-12-18T20:41:50.351Z,69.15
2018-12-18T20:44:21.621Z,68.45
2018-12-18T20:46:52.436Z,69.21
2018-12-18T20:49:22.190Z,67.31
2018-12-18T20:51:51.798Z,67.25
2018-12-18T20:54:28.546Z,66.44
2018-12-18T20:56:57.323Z,67.36
2018-12-18T20:59:26.939Z,65.83
2018-12-18T21:01:55.526Z,67.91
2018-12-18T21:04:28.823Z,67.78
2018-12-18T21:06:58.855Z,68.14
2018-12-18T21:09:29.755Z,67.32
2018-12-18T21:11:58.302Z,67.56
2018-12-18T21:14:27.374Z,67.85
2018-12-18T21:16:56.354Z,67.75
2018-12-18T21:19:26.271Z,67.66
2018-12-18T21:21:56.643Z,68.22
2018-12-18T21:24:28.026Z,68.07
2018-12-18T21:26:57.435Z,69.70
2018-12-18T21:29:27.336Z,69.21
2018-12-18T21:31:55.840Z,66.68
2018-12-18T21:34:28.823Z,66.82
2018-12-18T21:36:59.211Z,65.47
2018-12-18T21:39:29.307Z,67.59
2018-12-18T21:41:58.012Z,66.06
2018-12-18T21:44:27.130Z,67.30
2018-12-18T21:46:56.447Z,68.03
2018-12-18T21:49:25.507Z,68.29
2018-12-18T21:51:54.715Z,66.93
2018-12-18T21:54:24.438Z,65.23
2018-12-18T21:56:53.715Z,65.70
2018-12-18T21:59:22.297Z,65.20
2018-12-18T22:01:51.342Z,66.38
2018-12-18T22:04:20.908Z,65.74
2018-12-18T22:06:50.624Z,67.70
2018-12-18T22:09:21.027Z,67.02
2018-12-18T22:11:51.539Z,67.32
2018-12-18T22:14:22.404Z,67.70
2018-12-18T22:16:51.626Z,69.34
2018-12-18T22:19:20.723Z,70.95
2018-12-18T22:21:50.295Z,70.86
2018-12-18T22:24:18.979Z,69.68
2018-12-18T22:26:48.546Z,69.61
2018-12-18T22:29:17.306Z,69.19
2018-12-18T22:31:47.508Z,69.56
2018-12-18T22:34:16.702Z,69.36
2018-12-18T22:36:46.165Z,68.97
2018-12-18T22:39:15.724Z,68.58
2018-12-18T22:41:46.180Z,68.64
2018-12-18T22:44:15.978Z,69.13
2018-12-18T22:46:44.882Z,69.74
2018-12-18T22:49:14.674Z,69.55
2018-12-18T22:51:44.586Z,70.46
2018-12-18T22:54:14.779Z,70.31
2018-12-18T22:56:50.540Z,70.05
2018-12-18T22:59:19.699Z,70.46
2018-12-18T23:01:48.998Z,70.74
2018-12-18T23:04:18.777Z,70.10
2018-12-18T23:06:50.945Z,71.56
2018-12-18T23:09:20.674Z,71.03
2018-12-18T23:11:49.247Z,70.58
2018-12-18T23:14:18.826Z,71.50
2018-12-18T23:16:47.714Z,71.69
2018-12-18T23:19:16.260Z,70.35
2018-12-18T23:21:48.775Z,71.53
2018-12-18T23:24:18.143Z,70.52
2018-12-18T23:26:50.559Z,71.55
2018-12-18T23:29:19.634Z,72.70
2018-12-18T23:31:49.547Z,72.58
2018-12-18T23:34:18.756Z,73.37
2018-12-18T23:36:47.808Z,73.09
2018-12-18T23:39:17.299Z,73.39
2018-12-18T23:41:46.954Z,73.82
2018-12-18T23:44:17.438Z,73.68
2018-12-18T23:46:46.826Z,73.06
2018-12-18T23:49:15.424Z,72.89
2018-12-18T23:51:44.130Z,73.23
2018-12-18T23:54:12.662Z,72.66
2018-12-18T23:56:41.342Z,72.38
2018-12-18T23:59:12.349Z,72.13
